sensor_id;sensor_type;location;lat;lon;timestamp;P1;durP1;ratioP1;P2;durP2;ratioP2
16965;SDS011;8599;47.852;12.070;2023-03-25T00:01:46;0.80;;;0.77;;
16965;SDS011;8599;47.852;12.070;2023-03-25T00:04:13;0.90;;;0.90;;
16965;SDS011;8599;47.852;12.070;2023-03-25T00:06:41;1.77;;;1.03;;
16965;SDS011;8599;47.852;12.070;2023-03-25T00:09:08;2.67;;;2.13;;
16965;SDS011;8599;47.852;12.070;2023-03-25T00:11:35;0.93;;;0.93;;
16965;SDS011;8599;47.852;12.070;2023-03-25T00:14:02;1.23;;;1.10;;
16965;SDS011;8599;47.852;12.070;2023-03-25T00:16:29;1.10;;;1.10;;
16965;SDS011;8599;47.852;12.070;2023-03-25T00:18:57;0.70;;;0.70;;
16965;SDS011;8599;47.852;12.070;2023-03-25T00:21:26;1.03;;;0.90;;
16965;SDS011;8599;47.852;12.070;2023-03-25T00:23:52;1.13;;;0.90;;
16965;SDS011;8599;47.852;12.070;2023-03-25T00:26:20;1.07;;;0.93;;
16965;SDS011;8599;47.852;12.070;2023-03-25T00:28:47;0.70;;;0.70;;
16965;SDS011;8599;47.852;12.070;2023-03-25T00:31:13;1.20;;;0.87;;
16965;SDS011;8599;47.852;12.070;2023-03-25T00:33:40;5.80;;;2.50;;
16965;SDS011;8599;47.852;12.070;2023-03-25T00:36:09;1.30;;;1.17;;
16965;SDS011;8599;47.852;12.070;2023-03-25T00:38:38;0.87;;;0.87;;
16965;SDS011;8599;47.852;12.070;2023-03-25T00:41:08;1.87;;;1.13;;
16965;SDS011;8599;47.852;12.070;2023-03-25T00:43:41;2.00;;;1.57;;
16965;SDS011;8599;47.852;12.070;2023-03-25T00:46:08;2.13;;;1.70;;
16965;SDS011;8599;47.852;12.070;2023-03-25T00:48:36;2.10;;;1.60;;
16965;SDS011;8599;47.852;12.070;2023-03-25T00:51:03;3.27;;;1.40;;
16965;SDS011;8599;47.852;12.070;2023-03-25T00:53:35;1.87;;;1.37;;
16965;SDS011;8599;47.852;12.070;2023-03-25T00:56:03;2.73;;;1.60;;
16965;SDS011;8599;47.852;12.070;2023-03-25T00:58:31;1.77;;;1.30;;
16965;SDS011;8599;47.852;12.070;2023-03-25T01:00:58;2.50;;;1.40;;
16965;SDS011;8599;47.852;12.070;2023-03-25T01:03:25;0.90;;;0.90;;
16965;SDS011;8599;47.852;12.070;2023-03-25T01:05:53;1.33;;;1.20;;
16965;SDS011;8599;47.852;12.070;2023-03-25T01:08:22;3.93;;;1.37;;
16965;SDS011;8599;47.852;12.070;2023-03-25T01:10:51;2.37;;;1.50;;
16965;SDS011;8599;47.852;12.070;2023-03-25T01:13:19;2.43;;;1.40;;
16965;SDS011;8599;47.852;12.070;2023-03-25T01:15:46;1.30;;;1.17;;
16965;SDS011;8599;47.852;12.070;2023-03-25T01:18:13;5.00;;;1.37;;
16965;SDS011;8599;47.852;12.070;2023-03-25T01:20:40;1.37;;;1.17;;
16965;SDS011;8599;47.852;12.070;2023-03-25T01:23:07;2.30;;;0.87;;
16965;SDS011;8599;47.852;12.070;2023-03-25T01:25:34;4.00;;;1.03;;
16965;SDS011;8599;47.852;12.070;2023-03-25T01:28:03;1.43;;;1.10;;
16965;SDS011;8599;47.852;12.070;2023-03-25T01:30:31;1.83;;;1.00;;
16965;SDS011;8599;47.852;12.070;2023-03-25T01:32:58;1.30;;;1.00;;
16965;SDS011;8599;47.852;12.070;2023-03-25T01:35:25;2.37;;;0.80;;
16965;SDS011;8599;47.852;12.070;2023-03-25T01:37:52;0.80;;;0.80;;
16965;SDS011;8599;47.852;12.070;2023-03-25T01:40:20;1.10;;;0.93;;
16965;SDS011;8599;47.852;12.070;2023-03-25T01:42:48;0.80;;;0.80;;
16965;SDS011;8599;47.852;12.070;2023-03-25T01:45:19;1.80;;;0.90;;
16965;SDS011;8599;47.852;12.070;2023-03-25T01:47:50;2.10;;;0.80;;
16965;SDS011;8599;47.852;12.070;2023-03-25T01:50:22;0.90;;;0.90;;
16965;SDS011;8599;47.852;12.070;2023-03-25T01:52:53;0.80;;;0.80;;
16965;SDS011;8599;47.852;12.070;2023-03-25T01:55:23;7.93;;;2.50;;
16965;SDS011;8599;47.852;12.070;2023-03-25T01:57:52;3.23;;;1.77;;
16965;SDS011;8599;47.852;12.070;2023-03-25T02:00:25;1.23;;;1.03;;
16965;SDS011;8599;47.852;12.070;2023-03-25T02:02:52;1.37;;;1.27;;
16965;SDS011;8599;47.852;12.070;2023-03-25T02:05:24;1.60;;;1.07;;
16965;SDS011;8599;47.852;12.070;2023-03-25T02:07:57;1.33;;;1.13;;
16965;SDS011;8599;47.852;12.070;2023-03-25T02:10:27;2.17;;;1.00;;
16965;SDS011;8599;47.852;12.070;2023-03-25T02:12:54;0.90;;;0.90;;
16965;SDS011;8599;47.852;12.070;2023-03-25T02:15:21;1.30;;;1.00;;
16965;SDS011;8599;47.852;12.070;2023-03-25T02:17:54;0.70;;;0.70;;
16965;SDS011;8599;47.852;12.070;2023-03-25T02:23:44;0.93;;;0.80;;
16965;SDS011;8599;47.852;12.070;2023-03-25T02:29:41;2.87;;;1.00;;
16965;SDS011;8599;47.852;12.070;2023-03-25T02:32:36;1.57;;;0.60;;
16965;SDS011;8599;47.852;12.070;2023-03-25T02:35:22;3.80;;;1.20;;
16965;SDS011;8599;47.852;12.070;2023-03-25T02:38:12;2.53;;;1.03;;
16965;SDS011;8599;47.852;12.070;2023-03-25T02:40:46;3.07;;;0.90;;
16965;SDS011;8599;47.852;12.070;2023-03-25T02:43:20;1.27;;;0.83;;
16965;SDS011;8599;47.852;12.070;2023-03-25T02:45:53;5.23;;;0.97;;
16965;SDS011;8599;47.852;12.070;2023-03-25T02:48:24;1.50;;;0.70;;
16965;SDS011;8599;47.852;12.070;2023-03-25T02:50:57;2.13;;;0.83;;
16965;SDS011;8599;47.852;12.070;2023-03-25T02:53:30;2.73;;;0.90;;
16965;SDS011;8599;47.852;12.070;2023-03-25T02:56:02;1.50;;;1.10;;
16965;SDS011;8599;47.852;12.070;2023-03-25T02:58:33;1.23;;;0.73;;
16965;SDS011;8599;47.852;12.070;2023-03-25T03:01:02;5.13;;;0.80;;
16965;SDS011;8599;47.852;12.070;2023-03-25T03:03:29;1.23;;;0.70;;
16965;SDS011;8599;47.852;12.070;2023-03-25T03:05:57;3.80;;;0.93;;
16965;SDS011;8599;47.852;12.070;2023-03-25T03:08:29;3.30;;;0.70;;
16965;SDS011;8599;47.852;12.070;2023-03-25T03:11:10;2.43;;;0.70;;
16965;SDS011;8599;47.852;12.070;2023-03-25T03:16:35;1.77;;;0.80;;
16965;SDS011;8599;47.852;12.070;2023-03-25T03:19:15;0.75;;;0.60;;
16965;SDS011;8599;47.852;12.070;2023-03-25T03:21:53;1.30;;;0.80;;
16965;SDS011;8599;47.852;12.070;2023-03-25T03:24:27;0.60;;;0.60;;
16965;SDS011;8599;47.852;12.070;2023-03-25T03:26:58;0.60;;;0.50;;
16965;SDS011;8599;47.852;12.070;2023-03-25T03:29:33;5.70;;;0.70;;
16965;SDS011;8599;47.852;12.070;2023-03-25T03:32:04;1.17;;;0.70;;
16965;SDS011;8599;47.852;12.070;2023-03-25T03:34:36;13.40;;;0.80;;
16965;SDS011;8599;47.852;12.070;2023-03-25T03:37:09;0.63;;;0.60;;
16965;SDS011;8599;47.852;12.070;2023-03-25T03:39:40;0.93;;;0.57;;
16965;SDS011;8599;47.852;12.070;2023-03-25T03:42:09;0.87;;;0.67;;
16965;SDS011;8599;47.852;12.070;2023-03-25T03:44:42;0.67;;;0.67;;
16965;SDS011;8599;47.852;12.070;2023-03-25T03:47:13;2.17;;;0.90;;
16965;SDS011;8599;47.852;12.070;2023-03-25T03:49:45;2.17;;;0.80;;
16965;SDS011;8599;47.852;12.070;2023-03-25T03:52:16;2.73;;;0.90;;
16965;SDS011;8599;47.852;12.070;2023-03-25T03:54:48;5.43;;;0.93;;
16965;SDS011;8599;47.852;12.070;2023-03-25T03:57:20;1.53;;;0.80;;
16965;SDS011;8599;47.852;12.070;2023-03-25T03:59:52;0.77;;;0.67;;
16965;SDS011;8599;47.852;12.070;2023-03-25T04:02:31;1.00;;;0.50;;
16965;SDS011;8599;47.852;12.070;2023-03-25T04:05:03;1.03;;;0.80;;
16965;SDS011;8599;47.852;12.070;2023-03-25T04:07:31;2.93;;;0.90;;
16965;SDS011;8599;47.852;12.070;2023-03-25T04:10:06;5.50;;;0.90;;
16965;SDS011;8599;47.852;12.070;2023-03-25T04:12:40;1.17;;;0.50;;
16965;SDS011;8599;47.852;12.070;2023-03-25T04:15:10;1.10;;;0.63;;
16965;SDS011;8599;47.852;12.070;2023-03-25T04:17:37;3.13;;;0.77;;
16965;SDS011;8599;47.852;12.070;2023-03-25T04:20:04;0.63;;;0.50;;
16965;SDS011;8599;47.852;12.070;2023-03-25T04:22:35;1.20;;;0.47;;
16965;SDS011;8599;47.852;12.070;2023-03-25T04:25:03;1.13;;;0.60;;
16965;SDS011;8599;47.852;12.070;2023-03-25T04:27:32;5.97;;;0.90;;
16965;SDS011;8599;47.852;12.070;2023-03-25T04:30:02;1.13;;;0.70;;
16965;SDS011;8599;47.852;12.070;2023-03-25T04:32:29;1.60;;;0.73;;
16965;SDS011;8599;47.852;12.070;2023-03-25T04:34:56;0.90;;;0.60;;
16965;SDS011;8599;47.852;12.070;2023-03-25T04:37:24;2.73;;;0.63;;
16965;SDS011;8599;47.852;12.070;2023-03-25T04:39:51;1.10;;;0.50;;
16965;SDS011;8599;47.852;12.070;2023-03-25T04:42:21;0.70;;;0.53;;
16965;SDS011;8599;47.852;12.070;2023-03-25T04:44:49;0.60;;;0.60;;
16965;SDS011;8599;47.852;12.070;2023-03-25T04:47:16;2.93;;;0.60;;
16965;SDS011;8599;47.852;12.070;2023-03-25T04:49:48;1.77;;;0.67;;
16965;SDS011;8599;47.852;12.070;2023-03-25T04:52:15;2.93;;;0.50;;
16965;SDS011;8599;47.852;12.070;2023-03-25T04:54:42;1.50;;;0.77;;
16965;SDS011;8599;47.852;12.070;2023-03-25T04:57:10;2.67;;;0.83;;
16965;SDS011;8599;47.852;12.070;2023-03-25T04:59:38;3.43;;;0.60;;
16965;SDS011;8599;47.852;12.070;2023-03-25T05:02:05;1.90;;;0.60;;
16965;SDS011;8599;47.852;12.070;2023-03-25T05:04:37;1.77;;;0.87;;
16965;SDS011;8599;47.852;12.070;2023-03-25T05:07:06;3.70;;;0.70;;
16965;SDS011;8599;47.852;12.070;2023-03-25T05:09:33;2.03;;;0.83;;
16965;SDS011;8599;47.852;12.070;2023-03-25T05:12:00;2.87;;;1.10;;
16965;SDS011;8599;47.852;12.070;2023-03-25T05:14:27;3.23;;;0.90;;
16965;SDS011;8599;47.852;12.070;2023-03-25T05:16:55;0.77;;;0.53;;
16965;SDS011;8599;47.852;12.070;2023-03-25T05:19:24;0.57;;;0.50;;
16965;SDS011;8599;47.852;12.070;2023-03-25T05:21:52;2.33;;;0.87;;
16965;SDS011;8599;47.852;12.070;2023-03-25T05:24:20;2.30;;;0.70;;
16965;SDS011;8599;47.852;12.070;2023-03-25T05:26:47;1.80;;;0.73;;
16965;SDS011;8599;47.852;12.070;2023-03-25T05:29:14;2.40;;;1.03;;
16965;SDS011;8599;47.852;12.070;2023-03-25T05:31:41;1.70;;;0.80;;
16965;SDS011;8599;47.852;12.070;2023-03-25T05:34:11;1.13;;;0.67;;
16965;SDS011;8599;47.852;12.070;2023-03-25T05:36:38;1.43;;;0.50;;
16965;SDS011;8599;47.852;12.070;2023-03-25T05:39:05;0.73;;;0.70;;
16965;SDS011;8599;47.852;12.070;2023-03-25T05:41:32;1.70;;;1.47;;
16965;SDS011;8599;47.852;12.070;2023-03-25T05:44:03;1.87;;;0.70;;
16965;SDS011;8599;47.852;12.070;2023-03-25T05:46:30;2.63;;;1.90;;
16965;SDS011;8599;47.852;12.070;2023-03-25T05:48:57;2.40;;;1.83;;
16965;SDS011;8599;47.852;12.070;2023-03-25T05:51:26;3.80;;;1.30;;
16965;SDS011;8599;47.852;12.070;2023-03-25T05:53:57;1.80;;;1.13;;
16965;SDS011;8599;47.852;12.070;2023-03-25T05:56:25;0.70;;;0.70;;
16965;SDS011;8599;47.852;12.070;2023-03-25T05:58:52;0.60;;;0.60;;
16965;SDS011;8599;47.852;12.070;2023-03-25T06:01:20;0.60;;;0.43;;
16965;SDS011;8599;47.852;12.070;2023-03-25T06:03:47;0.70;;;0.60;;
16965;SDS011;8599;47.852;12.070;2023-03-25T06:06:14;1.03;;;0.53;;
16965;SDS011;8599;47.852;12.070;2023-03-25T06:08:45;4.57;;;0.50;;
16965;SDS011;8599;47.852;12.070;2023-03-25T06:11:14;1.23;;;0.60;;
16965;SDS011;8599;47.852;12.070;2023-03-25T06:13:42;0.47;;;0.40;;
16965;SDS011;8599;47.852;12.070;2023-03-25T06:16:14;0.60;;;0.43;;
16965;SDS011;8599;47.852;12.070;2023-03-25T06:18:42;2.03;;;0.70;;
16965;SDS011;8599;47.852;12.070;2023-03-25T06:21:09;0.40;;;0.40;;
16965;SDS011;8599;47.852;12.070;2023-03-25T06:23:36;0.57;;;0.50;;
16965;SDS011;8599;47.852;12.070;2023-03-25T06:26:05;0.40;;;0.40;;
16965;SDS011;8599;47.852;12.070;2023-03-25T06:28:33;0.40;;;0.40;;
16965;SDS011;8599;47.852;12.070;2023-03-25T06:31:00;1.83;;;0.50;;
16965;SDS011;8599;47.852;12.070;2023-03-25T06:33:31;0.83;;;0.50;;
16965;SDS011;8599;47.852;12.070;2023-03-25T06:35:58;0.50;;;0.50;;
16965;SDS011;8599;47.852;12.070;2023-03-25T06:38:24;0.30;;;0.30;;
16965;SDS011;8599;47.852;12.070;2023-03-25T06:40:54;0.50;;;0.40;;
16965;SDS011;8599;47.852;12.070;2023-03-25T06:43:22;2.33;;;0.40;;
16965;SDS011;8599;47.852;12.070;2023-03-25T06:45:49;0.57;;;0.53;;
16965;SDS011;8599;47.852;12.070;2023-03-25T06:48:16;0.40;;;0.40;;
16965;SDS011;8599;47.852;12.070;2023-03-25T06:50:43;0.73;;;0.37;;
16965;SDS011;8599;47.852;12.070;2023-03-25T06:53:10;0.50;;;0.50;;
16965;SDS011;8599;47.852;12.070;2023-03-25T06:55:37;0.60;;;0.30;;
16965;SDS011;8599;47.852;12.070;2023-03-25T06:58:05;0.60;;;0.50;;
16965;SDS011;8599;47.852;12.070;2023-03-25T07:00:33;1.17;;;0.50;;
16965;SDS011;8599;47.852;12.070;2023-03-25T07:03:00;0.47;;;0.40;;
16965;SDS011;8599;47.852;12.070;2023-03-25T07:05:27;0.40;;;0.40;;
16965;SDS011;8599;47.852;12.070;2023-03-25T07:07:54;0.43;;;0.43;;
16965;SDS011;8599;47.852;12.070;2023-03-25T07:10:20;0.40;;;0.40;;
16965;SDS011;8599;47.852;12.070;2023-03-25T07:12:47;0.77;;;0.50;;
16965;SDS011;8599;47.852;12.070;2023-03-25T07:15:14;0.40;;;0.40;;
16965;SDS011;8599;47.852;12.070;2023-03-25T07:17:42;0.73;;;0.37;;
16965;SDS011;8599;47.852;12.070;2023-03-25T07:20:13;0.33;;;0.33;;
16965;SDS011;8599;47.852;12.070;2023-03-25T07:22:40;1.87;;;0.50;;
16965;SDS011;8599;47.852;12.070;2023-03-25T07:25:07;0.40;;;0.40;;
16965;SDS011;8599;47.852;12.070;2023-03-25T07:27:34;0.40;;;0.27;;
16965;SDS011;8599;47.852;12.070;2023-03-25T07:30:01;0.30;;;0.30;;
16965;SDS011;8599;47.852;12.070;2023-03-25T07:32:28;0.53;;;0.50;;
16965;SDS011;8599;47.852;12.070;2023-03-25T07:34:56;0.40;;;0.40;;
16965;SDS011;8599;47.852;12.070;2023-03-25T07:37:23;0.93;;;0.20;;
16965;SDS011;8599;47.852;12.070;2023-03-25T07:39:50;0.30;;;0.30;;
16965;SDS011;8599;47.852;12.070;2023-03-25T07:42:17;0.27;;;0.27;;
16965;SDS011;8599;47.852;12.070;2023-03-25T07:44:44;1.33;;;0.60;;
16965;SDS011;8599;47.852;12.070;2023-03-25T07:47:11;0.40;;;0.40;;
16965;SDS011;8599;47.852;12.070;2023-03-25T07:49:38;0.40;;;0.40;;
16965;SDS011;8599;47.852;12.070;2023-03-25T07:52:06;0.50;;;0.50;;
16965;SDS011;8599;47.852;12.070;2023-03-25T07:54:33;0.20;;;0.20;;
16965;SDS011;8599;47.852;12.070;2023-03-25T07:57:00;0.37;;;0.37;;
16965;SDS011;8599;47.852;12.070;2023-03-25T07:59:27;0.47;;;0.40;;
16965;SDS011;8599;47.852;12.070;2023-03-25T08:01:54;0.40;;;0.40;;
16965;SDS011;8599;47.852;12.070;2023-03-25T08:04:20;0.60;;;0.50;;
16965;SDS011;8599;47.852;12.070;2023-03-25T08:06:47;3.47;;;0.83;;
16965;SDS011;8599;47.852;12.070;2023-03-25T08:09:15;0.60;;;0.60;;
16965;SDS011;8599;47.852;12.070;2023-03-25T08:11:42;1.30;;;0.53;;
16965;SDS011;8599;47.852;12.070;2023-03-25T08:14:10;0.40;;;0.40;;
16965;SDS011;8599;47.852;12.070;2023-03-25T08:16:37;0.40;;;0.40;;
16965;SDS011;8599;47.852;12.070;2023-03-25T08:19:03;0.30;;;0.30;;
16965;SDS011;8599;47.852;12.070;2023-03-25T08:21:30;0.37;;;0.37;;
16965;SDS011;8599;47.852;12.070;2023-03-25T08:23:57;0.80;;;0.73;;
16965;SDS011;8599;47.852;12.070;2023-03-25T08:26:28;0.30;;;0.30;;
16965;SDS011;8599;47.852;12.070;2023-03-25T08:28:55;0.77;;;0.57;;
16965;SDS011;8599;47.852;12.070;2023-03-25T08:31:23;1.03;;;0.40;;
16965;SDS011;8599;47.852;12.070;2023-03-25T08:33:54;0.93;;;0.60;;
16965;SDS011;8599;47.852;12.070;2023-03-25T08:36:21;0.53;;;0.43;;
16965;SDS011;8599;47.852;12.070;2023-03-25T08:38:48;0.80;;;0.37;;
16965;SDS011;8599;47.852;12.070;2023-03-25T08:41:15;0.30;;;0.30;;
16965;SDS011;8599;47.852;12.070;2023-03-25T08:43:44;0.43;;;0.40;;
16965;SDS011;8599;47.852;12.070;2023-03-25T08:46:11;0.50;;;0.40;;
16965;SDS011;8599;47.852;12.070;2023-03-25T08:48:38;0.40;;;0.40;;
16965;SDS011;8599;47.852;12.070;2023-03-25T08:51:05;0.30;;;0.30;;
16965;SDS011;8599;47.852;12.070;2023-03-25T08:53:32;0.87;;;0.37;;
16965;SDS011;8599;47.852;12.070;2023-03-25T08:55:59;0.53;;;0.30;;
16965;SDS011;8599;47.852;12.070;2023-03-25T08:58:26;0.37;;;0.33;;
16965;SDS011;8599;47.852;12.070;2023-03-25T09:00:54;0.73;;;0.53;;
16965;SDS011;8599;47.852;12.070;2023-03-25T09:03:22;1.40;;;0.47;;
16965;SDS011;8599;47.852;12.070;2023-03-25T09:05:51;1.30;;;0.47;;
16965;SDS011;8599;47.852;12.070;2023-03-25T09:08:18;0.40;;;0.30;;
16965;SDS011;8599;47.852;12.070;2023-03-25T09:10:45;0.30;;;0.30;;
16965;SDS011;8599;47.852;12.070;2023-03-25T09:13:11;1.17;;;0.53;;
16965;SDS011;8599;47.852;12.070;2023-03-25T09:15:38;0.20;;;0.20;;
16965;SDS011;8599;47.852;12.070;2023-03-25T09:18:07;1.70;;;0.30;;
16965;SDS011;8599;47.852;12.070;2023-03-25T09:20:34;1.67;;;0.30;;
16965;SDS011;8599;47.852;12.070;2023-03-25T09:23:01;0.37;;;0.33;;
16965;SDS011;8599;47.852;12.070;2023-03-25T09:25:27;2.03;;;0.40;;
16965;SDS011;8599;47.852;12.070;2023-03-25T09:27:55;0.50;;;0.50;;
16965;SDS011;8599;47.852;12.070;2023-03-25T09:30:21;0.33;;;0.33;;
16965;SDS011;8599;47.852;12.070;2023-03-25T09:32:48;0.87;;;0.50;;
16965;SDS011;8599;47.852;12.070;2023-03-25T09:35:16;0.83;;;0.50;;
16965;SDS011;8599;47.852;12.070;2023-03-25T09:37:43;3.33;;;0.40;;
16965;SDS011;8599;47.852;12.070;2023-03-25T09:40:11;1.00;;;0.60;;
16965;SDS011;8599;47.852;12.070;2023-03-25T09:42:43;0.33;;;0.30;;
16965;SDS011;8599;47.852;12.070;2023-03-25T09:45:24;0.50;;;0.30;;
16965;SDS011;8599;47.852;12.070;2023-03-25T09:47:58;0.77;;;0.50;;
16965;SDS011;8599;47.852;12.070;2023-03-25T09:50:30;0.93;;;0.50;;
16965;SDS011;8599;47.852;12.070;2023-03-25T09:53:02;0.70;;;0.50;;
16965;SDS011;8599;47.852;12.070;2023-03-25T09:55:35;1.13;;;0.40;;
16965;SDS011;8599;47.852;12.070;2023-03-25T09:58:22;0.60;;;0.50;;
16965;SDS011;8599;47.852;12.070;2023-03-25T10:00:54;1.30;;;0.57;;
16965;SDS011;8599;47.852;12.070;2023-03-25T10:03:24;0.40;;;0.40;;
16965;SDS011;8599;47.852;12.070;2023-03-25T10:06:00;0.73;;;0.50;;
16965;SDS011;8599;47.852;12.070;2023-03-25T10:08:37;0.67;;;0.37;;
16965;SDS011;8599;47.852;12.070;2023-03-25T10:11:13;0.50;;;0.40;;
16965;SDS011;8599;47.852;12.070;2023-03-25T10:13:46;1.30;;;0.50;;
16965;SDS011;8599;47.852;12.070;2023-03-25T10:16:21;2.20;;;0.30;;
16965;SDS011;8599;47.852;12.070;2023-03-25T10:19:02;1.97;;;0.70;;
16965;SDS011;8599;47.852;12.070;2023-03-25T10:21:42;4.53;;;0.40;;
16965;SDS011;8599;47.852;12.070;2023-03-25T10:24:19;0.47;;;0.40;;
16965;SDS011;8599;47.852;12.070;2023-03-25T10:26:49;1.53;;;0.67;;
16965;SDS011;8599;47.852;12.070;2023-03-25T10:29:21;1.23;;;0.40;;
16965;SDS011;8599;47.852;12.070;2023-03-25T10:31:56;2.00;;;0.50;;
16965;SDS011;8599;47.852;12.070;2023-03-25T10:34:28;0.67;;;0.50;;
16965;SDS011;8599;47.852;12.070;2023-03-25T10:37:05;0.53;;;0.30;;
16965;SDS011;8599;47.852;12.070;2023-03-25T10:39:38;0.30;;;0.30;;
16965;SDS011;8599;47.852;12.070;2023-03-25T10:42:13;0.40;;;0.40;;
16965;SDS011;8599;47.852;12.070;2023-03-25T10:44:44;1.30;;;0.50;;
16965;SDS011;8599;47.852;12.070;2023-03-25T10:47:13;0.60;;;0.53;;
16965;SDS011;8599;47.852;12.070;2023-03-25T10:49:42;1.70;;;0.40;;
16965;SDS011;8599;47.852;12.070;2023-03-25T10:52:13;0.63;;;0.50;;
16965;SDS011;8599;47.852;12.070;2023-03-25T10:54:41;0.23;;;0.20;;
16965;SDS011;8599;47.852;12.070;2023-03-25T10:57:11;0.53;;;0.33;;
16965;SDS011;8599;47.852;12.070;2023-03-25T10:59:46;0.40;;;0.40;;
16965;SDS011;8599;47.852;12.070;2023-03-25T11:02:21;0.93;;;0.57;;
16965;SDS011;8599;47.852;12.070;2023-03-25T11:04:51;0.30;;;0.30;;
16965;SDS011;8599;47.852;12.070;2023-03-25T11:07:22;1.47;;;0.50;;
16965;SDS011;8599;47.852;12.070;2023-03-25T11:09:58;0.60;;;0.53;;
16965;SDS011;8599;47.852;12.070;2023-03-25T11:12:35;1.70;;;0.70;;
16965;SDS011;8599;47.852;12.070;2023-03-25T11:15:03;1.80;;;0.80;;
16965;SDS011;8599;47.852;12.070;2023-03-25T11:17:31;2.73;;;1.00;;
16965;SDS011;8599;47.852;12.070;2023-03-25T11:20:00;0.83;;;0.70;;
16965;SDS011;8599;47.852;12.070;2023-03-25T11:22:36;1.20;;;0.90;;
16965;SDS011;8599;47.852;12.070;2023-03-25T11:25:11;0.40;;;0.40;;
16965;SDS011;8599;47.852;12.070;2023-03-25T11:27:45;1.20;;;0.53;;
16965;SDS011;8599;47.852;12.070;2023-03-25T11:30:15;1.07;;;0.57;;
16965;SDS011;8599;47.852;12.070;2023-03-25T11:32:43;0.50;;;0.50;;
16965;SDS011;8599;47.852;12.070;2023-03-25T11:35:21;0.40;;;0.40;;
16965;SDS011;8599;47.852;12.070;2023-03-25T11:37:54;1.03;;;0.50;;
16965;SDS011;8599;47.852;12.070;2023-03-25T11:40:22;0.30;;;0.30;;
16965;SDS011;8599;47.852;12.070;2023-03-25T11:42:50;0.40;;;0.37;;
16965;SDS011;8599;47.852;12.070;2023-03-25T11:45:20;0.60;;;0.57;;
16965;SDS011;8599;47.852;12.070;2023-03-25T11:47:48;0.50;;;0.50;;
16965;SDS011;8599;47.852;12.070;2023-03-25T11:50:20;0.30;;;0.30;;
16965;SDS011;8599;47.852;12.070;2023-03-25T11:52:48;1.40;;;0.53;;
16965;SDS011;8599;47.852;12.070;2023-03-25T11:55:22;0.43;;;0.43;;
16965;SDS011;8599;47.852;12.070;2023-03-25T11:57:52;0.80;;;0.40;;
16965;SDS011;8599;47.852;12.070;2023-03-25T12:00:32;0.87;;;0.40;;
16965;SDS011;8599;47.852;12.070;2023-03-25T12:03:04;1.27;;;0.60;;
16965;SDS011;8599;47.852;12.070;2023-03-25T12:05:32;4.80;;;0.40;;
16965;SDS011;8599;47.852;12.070;2023-03-25T12:08:02;0.30;;;0.30;;
16965;SDS011;8599;47.852;12.070;2023-03-25T12:10:42;0.97;;;0.50;;
16965;SDS011;8599;47.852;12.070;2023-03-25T12:13:16;0.20;;;0.20;;
16965;SDS011;8599;47.852;12.070;2023-03-25T12:15:54;0.53;;;0.40;;
16965;SDS011;8599;47.852;12.070;2023-03-25T12:18:40;0.30;;;0.30;;
16965;SDS011;8599;47.852;12.070;2023-03-25T12:21:15;0.40;;;0.40;;
16965;SDS011;8599;47.852;12.070;2023-03-25T12:24:02;0.40;;;0.40;;
16965;SDS011;8599;47.852;12.070;2023-03-25T12:26:39;0.40;;;0.40;;
16965;SDS011;8599;47.852;12.070;2023-03-25T12:29:18;0.30;;;0.30;;
16965;SDS011;8599;47.852;12.070;2023-03-25T12:31:56;0.60;;;0.60;;
16965;SDS011;8599;47.852;12.070;2023-03-25T12:34:34;0.30;;;0.30;;
16965;SDS011;8599;47.852;12.070;2023-03-25T12:37:11;1.27;;;0.40;;
16965;SDS011;8599;47.852;12.070;2023-03-25T12:39:51;0.20;;;0.20;;
16965;SDS011;8599;47.852;12.070;2023-03-25T12:42:34;0.30;;;0.30;;
16965;SDS011;8599;47.852;12.070;2023-03-25T12:45:20;0.37;;;0.37;;
16965;SDS011;8599;47.852;12.070;2023-03-25T12:47:58;0.30;;;0.30;;
16965;SDS011;8599;47.852;12.070;2023-03-25T12:50:33;4.70;;;0.40;;
16965;SDS011;8599;47.852;12.070;2023-03-25T12:53:13;0.40;;;0.40;;
16965;SDS011;8599;47.852;12.070;2023-03-25T12:55:57;0.60;;;0.40;;
16965;SDS011;8599;47.852;12.070;2023-03-25T12:58:46;0.20;;;0.20;;
16965;SDS011;8599;47.852;12.070;2023-03-25T13:01:47;0.30;;;0.30;;
16965;SDS011;8599;47.852;12.070;2023-03-25T13:04:26;0.20;;;0.20;;
16965;SDS011;8599;47.852;12.070;2023-03-25T13:07:10;0.30;;;0.30;;
16965;SDS011;8599;47.852;12.070;2023-03-25T13:09:44;3.53;;;0.30;;
16965;SDS011;8599;47.852;12.070;2023-03-25T13:12:21;0.20;;;0.20;;
16965;SDS011;8599;47.852;12.070;2023-03-25T13:14:57;0.40;;;0.40;;
16965;SDS011;8599;47.852;12.070;2023-03-25T13:17:29;0.40;;;0.40;;
16965;SDS011;8599;47.852;12.070;2023-03-25T13:20:01;0.40;;;0.40;;
16965;SDS011;8599;47.852;12.070;2023-03-25T13:22:35;0.63;;;0.40;;
16965;SDS011;8599;47.852;12.070;2023-03-25T13:25:09;0.40;;;0.40;;
16965;SDS011;8599;47.852;12.070;2023-03-25T13:27:46;0.33;;;0.30;;
16965;SDS011;8599;47.852;12.070;2023-03-25T13:30:16;0.30;;;0.30;;
16965;SDS011;8599;47.852;12.070;2023-03-25T13:32:53;0.30;;;0.30;;
16965;SDS011;8599;47.852;12.070;2023-03-25T13:35:28;0.40;;;0.40;;
16965;SDS011;8599;47.852;12.070;2023-03-25T13:38:03;0.30;;;0.30;;
16965;SDS011;8599;47.852;12.070;2023-03-25T13:40:39;0.40;;;0.40;;
16965;SDS011;8599;47.852;12.070;2023-03-25T13:43:13;0.50;;;0.50;;
16965;SDS011;8599;47.852;12.070;2023-03-25T13:45:48;0.30;;;0.27;;
16965;SDS011;8599;47.852;12.070;2023-03-25T13:48:21;0.40;;;0.40;;
16965;SDS011;8599;47.852;12.070;2023-03-25T13:50:52;0.30;;;0.27;;
16965;SDS011;8599;47.852;12.070;2023-03-25T13:53:22;0.90;;;0.40;;
16965;SDS011;8599;47.852;12.070;2023-03-25T13:55:54;0.33;;;0.33;;
16965;SDS011;8599;47.852;12.070;2023-03-25T13:58:35;0.30;;;0.30;;
16965;SDS011;8599;47.852;12.070;2023-03-25T14:04:25;0.43;;;0.30;;
16965;SDS011;8599;47.852;12.070;2023-03-25T14:07:09;0.40;;;0.40;;
16965;SDS011;8599;47.852;12.070;2023-03-25T14:10:08;0.30;;;0.30;;
16965;SDS011;8599;47.852;12.070;2023-03-25T14:13:09;0.37;;;0.30;;
16965;SDS011;8599;47.852;12.070;2023-03-25T14:15:42;0.30;;;0.30;;
16965;SDS011;8599;47.852;12.070;2023-03-25T14:18:16;0.30;;;0.30;;
16965;SDS011;8599;47.852;12.070;2023-03-25T14:20:45;0.20;;;0.20;;
16965;SDS011;8599;47.852;12.070;2023-03-25T14:23:12;0.40;;;0.40;;
16965;SDS011;8599;47.852;12.070;2023-03-25T14:25:44;0.40;;;0.40;;
16965;SDS011;8599;47.852;12.070;2023-03-25T14:28:14;0.30;;;0.30;;
16965;SDS011;8599;47.852;12.070;2023-03-25T14:30:55;0.63;;;0.63;;
16965;SDS011;8599;47.852;12.070;2023-03-25T14:37:08;0.20;;;0.20;;
16965;SDS011;8599;47.852;12.070;2023-03-25T14:39:44;0.33;;;0.33;;
16965;SDS011;8599;47.852;12.070;2023-03-25T14:42:22;0.40;;;0.40;;
16965;SDS011;8599;47.852;12.070;2023-03-25T14:44:51;0.40;;;0.40;;
16965;SDS011;8599;47.852;12.070;2023-03-25T14:47:29;0.30;;;0.30;;
16965;SDS011;8599;47.852;12.070;2023-03-25T14:50:04;0.23;;;0.23;;
16965;SDS011;8599;47.852;12.070;2023-03-25T14:52:57;0.47;;;0.40;;
16965;SDS011;8599;47.852;12.070;2023-03-25T14:55:28;0.30;;;0.30;;
16965;SDS011;8599;47.852;12.070;2023-03-25T14:57:58;0.30;;;0.30;;
16965;SDS011;8599;47.852;12.070;2023-03-25T15:00:28;0.67;;;0.40;;
16965;SDS011;8599;47.852;12.070;2023-03-25T15:02:58;0.40;;;0.40;;
16965;SDS011;8599;47.852;12.070;2023-03-25T15:05:28;0.30;;;0.30;;
16965;SDS011;8599;47.852;12.070;2023-03-25T15:07:57;0.57;;;0.57;;
16965;SDS011;8599;47.852;12.070;2023-03-25T15:10:37;0.30;;;0.30;;
16965;SDS011;8599;47.852;12.070;2023-03-25T15:13:07;0.20;;;0.20;;
16965;SDS011;8599;47.852;12.070;2023-03-25T15:15:55;0.40;;;0.27;;
16965;SDS011;8599;47.852;12.070;2023-03-25T15:21:32;0.87;;;0.40;;
16965;SDS011;8599;47.852;12.070;2023-03-25T15:24:20;0.40;;;0.40;;
16965;SDS011;8599;47.852;12.070;2023-03-25T15:26:53;0.93;;;0.40;;
16965;SDS011;8599;47.852;12.070;2023-03-25T15:32:11;0.37;;;0.37;;
16965;SDS011;8599;47.852;12.070;2023-03-25T15:34:55;0.50;;;0.30;;